首页
METAR-TAF:

METAR-TAF

机场 :

Shelby County Airport

阿拉巴斯特, 阿拉巴马州, 美国

纬度: 33-10-42N, 经度: 086-46-54W, 海拔: 178米

当前天气观测

该预报发布于15分钟前的10:53 UTC
风速4节,风向
温度 6°C
湿度 87%
气压 1023 hPa
能見度: 16.1公里
多云层高于4600英尺
阴天层高于5500英尺

METAR: KEET 151053Z AUTO 35004KT 10SM BKN046 OVC055 06/04 A3020 RMK AO2 SLP226 T00610044

时间: 05:08 (11:08 UTC)

预报

该预报发布于5小时和48分钟前的05:20 UTC
预报有效从15日的 06点(UTC)到 16日的 06点(UTC)
风速节,风向
能見度: 10公里
阴天层高于10000英尺
小毛毛雨
从 15日的 0700点(UTC)
风速4节,风向
能見度: 10公里
阴天层高于7000英尺
从 15日的 1500点(UTC)
风速8节,风向
能見度: 10公里
阴天层高于10000英尺

TAF: KEET 150520Z 1506/1606 00000KT P6SM -DZ OVC100 FM150700 36004KT P6SM OVC070 FM151500 36008KT P6SM OVC100

超过4000个机场的气象观测和天气预报(METAR&TAF报告)。

可查询的气象台以黄色和红色小点在地图上表示。

将鼠标移到小点上方,可查看气象台名称。

然后点击查看天气观测和预报。

如需切换地图:点击带黑十字的绿色按钮放大地图;点击带横线的绿色按钮缩小地图;或者点击绿色箭头查看邻近地区的地图。


METAR-TAF: